createdAt,value
2022-11-29T00:01:26.527Z,11.70
2022-11-29T00:03:55.296Z,11.88
2022-11-29T00:06:27.650Z,10.98
2022-11-29T00:08:56.787Z,12.50
2022-11-29T00:11:40.501Z,10.38
2022-11-29T00:14:10.239Z,11.77
2022-11-29T00:16:40.882Z,11.55
2022-11-29T00:19:09.881Z,10.52
2022-11-29T00:21:39.400Z,9.93
2022-11-29T00:24:08.033Z,10.52
2022-11-29T00:26:37.018Z,12.30
2022-11-29T00:29:05.324Z,13.98
2022-11-29T00:31:33.861Z,13.82
2022-11-29T00:34:04.428Z,14.43
2022-11-29T00:36:32.268Z,15.90
2022-11-29T00:39:02.021Z,14.75
2022-11-29T00:41:29.925Z,14.18
2022-11-29T00:43:58.171Z,13.77
2022-11-29T00:46:26.247Z,15.65
2022-11-29T00:48:54.189Z,15.38
2022-11-29T00:51:22.023Z,14.70
2022-11-29T00:53:50.460Z,14.85
2022-11-29T00:56:19.756Z,16.77
2022-11-29T00:58:48.689Z,19.38
2022-11-29T01:01:17.217Z,20.65
2022-11-29T01:03:45.078Z,13.48
2022-11-29T01:06:15.372Z,16.83
2022-11-29T01:08:45.613Z,14.90
2022-11-29T01:11:16.599Z,15.80
2022-11-29T01:13:46.794Z,17.08
2022-11-29T01:16:15.609Z,15.30
2022-11-29T01:18:44.109Z,17.83
2022-11-29T01:21:14.996Z,17.02
2022-11-29T01:23:45.065Z,17.33
2022-11-29T01:26:15.505Z,18.88
2022-11-29T01:28:46.422Z,19.83
2022-11-29T01:31:17.284Z,16.50
2022-11-29T01:33:45.564Z,17.15
2022-11-29T01:36:14.493Z,15.95
2022-11-29T01:38:43.562Z,15.15
2022-11-29T01:41:16.412Z,18.05
2022-11-29T01:44:04.944Z,18.35
2022-11-29T01:46:34.308Z,24.83
2022-11-29T01:49:07.821Z,18.65
2022-11-29T01:51:37.511Z,18.90
2022-11-29T01:54:08.202Z,20.75
2022-11-29T01:56:36.589Z,19.75
2022-11-29T01:59:09.042Z,17.40
2022-11-29T02:01:37.487Z,19.13
2022-11-29T02:04:07.018Z,20.05
2022-11-29T02:06:35.722Z,17.27
2022-11-29T02:09:04.311Z,20.00
2022-11-29T02:12:00.006Z,21.77
2022-11-29T02:14:48.753Z,17.85
2022-11-29T02:17:26.130Z,19.13
2022-11-29T02:20:23.889Z,18.23
2022-11-29T02:23:03.038Z,20.90
2022-11-29T02:25:58.491Z,18.38
2022-11-29T02:29:21.090Z,23.52
2022-11-29T02:32:25.763Z,19.45
2022-11-29T02:34:59.839Z,18.63
2022-11-29T02:38:01.147Z,17.13
2022-11-29T02:40:55.519Z,17.70
2022-11-29T02:43:43.647Z,18.08
2022-11-29T02:46:26.698Z,27.50
2022-11-29T02:49:03.632Z,21.85
2022-11-29T02:51:41.149Z,22.50
2022-11-29T02:54:17.442Z,21.15
2022-11-29T02:56:52.269Z,22.98
2022-11-29T02:59:31.709Z,19.90
2022-11-29T03:02:08.141Z,21.60
2022-11-29T03:04:46.826Z,18.50
2022-11-29T03:07:24.923Z,20.83
2022-11-29T03:10:01.670Z,21.27
2022-11-29T03:12:38.894Z,23.27
2022-11-29T03:15:20.587Z,20.05
2022-11-29T03:18:02.327Z,21.20
2022-11-29T03:20:39.804Z,20.55
2022-11-29T03:23:20.222Z,20.83
2022-11-29T03:25:53.479Z,20.60
2022-11-29T03:28:26.059Z,22.88
2022-11-29T03:31:02.416Z,26.38
2022-11-29T03:33:38.996Z,22.52
2022-11-29T03:36:17.170Z,21.13
2022-11-29T03:38:47.264Z,25.00
2022-11-29T03:41:21.769Z,23.60
2022-11-29T03:43:57.570Z,23.25
2022-11-29T03:46:34.198Z,20.02
2022-11-29T03:49:08.124Z,23.90
2022-11-29T03:51:50.426Z,22.70
2022-11-29T03:54:23.399Z,20.38
2022-11-29T03:56:52.157Z,21.92
2022-11-29T03:59:36.093Z,22.67
2022-11-29T04:02:41.203Z,19.05
2022-11-29T04:05:32.480Z,16.60
2022-11-29T04:08:44.147Z,19.27
2022-11-29T04:11:54.987Z,21.65
2022-11-29T04:14:34.579Z,19.48
2022-11-29T04:17:35.019Z,21.15
2022-11-29T04:20:48.503Z,18.98
2022-11-29T04:23:47.749Z,16.42
2022-11-29T04:26:38.285Z,18.33
2022-11-29T04:29:34.264Z,21.85
2022-11-29T04:32:22.511Z,20.77
2022-11-29T04:35:13.484Z,23.30
2022-11-29T04:38:07.064Z,19.02
2022-11-29T04:40:53.369Z,20.30
2022-11-29T04:43:42.254Z,19.42
2022-11-29T04:46:37.210Z,20.23
2022-11-29T04:49:24.947Z,24.33
2022-11-29T04:52:22.105Z,20.40
2022-11-29T04:54:57.849Z,27.50
2022-11-29T04:57:33.906Z,22.40
2022-11-29T05:00:09.880Z,22.75
2022-11-29T05:02:45.068Z,22.17
2022-11-29T05:05:25.734Z,20.35
2022-11-29T05:08:08.483Z,20.90
2022-11-29T05:10:42.954Z,24.80
2022-11-29T05:13:16.433Z,21.90
2022-11-29T05:16:09.704Z,23.40
2022-11-29T05:18:58.515Z,20.88
2022-11-29T05:21:39.462Z,24.42
2022-11-29T05:24:18.872Z,21.20
2022-11-29T05:26:55.838Z,24.35
2022-11-29T05:29:35.155Z,27.30
2022-11-29T05:32:22.501Z,25.35
2022-11-29T05:35:03.136Z,23.05
2022-11-29T05:37:44.119Z,23.42
2022-11-29T05:40:41.795Z,23.98
2022-11-29T05:43:42.116Z,26.42
2022-11-29T05:46:18.442Z,25.58
2022-11-29T05:48:57.802Z,28.25
2022-11-29T05:51:34.994Z,27.42
2022-11-29T05:54:14.460Z,25.88
2022-11-29T05:56:53.948Z,24.88
2022-11-29T05:59:24.428Z,22.75
2022-11-29T06:01:59.071Z,24.80
2022-11-29T06:04:40.081Z,31.95
2022-11-29T06:07:15.300Z,26.30
2022-11-29T06:09:50.246Z,27.10
2022-11-29T06:12:21.873Z,30.58
2022-11-29T06:15:07.373Z,29.40
2022-11-29T06:18:03.280Z,32.80
2022-11-29T06:21:03.944Z,25.85
2022-11-29T06:23:58.970Z,32.05
2022-11-29T06:26:41.128Z,30.23
2022-11-29T06:29:25.257Z,31.20
2022-11-29T06:31:59.736Z,23.83
2022-11-29T06:34:34.332Z,28.30
2022-11-29T06:37:15.645Z,32.65
2022-11-29T06:39:44.086Z,26.23
2022-11-29T06:42:12.045Z,23.77
2022-11-29T06:44:40.427Z,26.55
2022-11-29T06:47:15.940Z,27.30
2022-11-29T06:49:48.926Z,26.30
2022-11-29T06:52:27.129Z,21.75
2022-11-29T06:55:11.613Z,22.50
2022-11-29T06:57:51.454Z,22.35
2022-11-29T07:00:22.192Z,23.83
2022-11-29T07:03:13.478Z,25.20
2022-11-29T07:05:41.906Z,23.80
2022-11-29T07:08:16.836Z,28.70
2022-11-29T07:10:45.700Z,20.30
2022-11-29T07:13:14.770Z,22.08
2022-11-29T07:15:54.329Z,27.60
2022-11-29T07:18:32.417Z,21.95
2022-11-29T07:21:11.124Z,29.33
2022-11-29T07:23:50.955Z,26.55
2022-11-29T07:26:30.337Z,20.95
2022-11-29T07:29:17.188Z,23.67
2022-11-29T07:31:55.565Z,28.55
2022-11-29T07:34:31.046Z,20.30
2022-11-29T07:37:08.071Z,19.67
2022-11-29T07:39:46.652Z,19.27
2022-11-29T07:42:21.548Z,21.20
2022-11-29T07:45:01.352Z,24.90
2022-11-29T07:47:35.306Z,24.52
2022-11-29T07:50:03.735Z,22.65
2022-11-29T07:52:31.752Z,20.75
2022-11-29T07:55:00.963Z,22.65
2022-11-29T07:57:28.712Z,22.00
2022-11-29T07:59:56.602Z,24.48
2022-11-29T08:02:29.196Z,23.33
2022-11-29T08:04:57.091Z,25.85
2022-11-29T08:07:26.776Z,24.10
2022-11-29T08:09:54.962Z,25.60
2022-11-29T08:12:24.133Z,25.92
2022-11-29T08:14:52.036Z,22.25
2022-11-29T08:17:19.840Z,24.02
2022-11-29T08:19:47.738Z,27.35
2022-11-29T08:22:15.650Z,25.90
2022-11-29T08:24:44.176Z,21.33
2022-11-29T08:27:12.162Z,24.60
2022-11-29T08:29:41.649Z,24.33
2022-11-29T08:32:10.057Z,20.08
2022-11-29T08:34:38.056Z,24.00
2022-11-29T08:37:05.892Z,24.85
2022-11-29T08:39:33.713Z,22.88
2022-11-29T08:42:01.800Z,23.27
2022-11-29T08:44:30.930Z,22.80
2022-11-29T08:47:17.297Z,19.13
2022-11-29T08:49:59.294Z,26.13
2022-11-29T08:52:44.550Z,28.95
2022-11-29T08:55:13.925Z,27.52
2022-11-29T08:57:43.226Z,28.42
2022-11-29T09:00:12.588Z,28.25
2022-11-29T09:02:42.360Z,22.48
2022-11-29T09:05:11.865Z,24.42
2022-11-29T09:07:40.238Z,22.73
2022-11-29T09:10:09.401Z,20.08
2022-11-29T09:12:38.106Z,25.55
2022-11-29T09:15:06.915Z,20.75
2022-11-29T09:17:35.017Z,18.88
2022-11-29T09:20:05.367Z,22.17
2022-11-29T09:22:33.231Z,20.27
2022-11-29T09:25:01.120Z,22.55
2022-11-29T09:27:29.051Z,17.27
2022-11-29T09:29:58.126Z,16.73
2022-11-29T09:32:25.950Z,23.63
2022-11-29T09:34:53.844Z,21.33
2022-11-29T09:37:22.988Z,20.88
2022-11-29T09:39:50.861Z,20.58
2022-11-29T09:42:39.528Z,18.15
2022-11-29T09:45:10.575Z,20.70
2022-11-29T09:48:04.684Z,18.55
2022-11-29T09:50:35.545Z,17.88
2022-11-29T09:53:20.807Z,21.17
2022-11-29T09:56:01.108Z,23.83
2022-11-29T09:58:34.018Z,19.60
2022-11-29T10:01:06.481Z,15.23
2022-11-29T10:03:39.346Z,18.77
2022-11-29T10:06:14.973Z,13.05
2022-11-29T10:08:49.717Z,17.08
2022-11-29T10:11:23.965Z,14.75
2022-11-29T10:13:54.880Z,11.90
2022-11-29T10:16:28.654Z,14.77
2022-11-29T10:19:04.874Z,12.80
2022-11-29T10:21:36.529Z,15.70
2022-11-29T10:24:11.448Z,21.15
2022-11-29T10:26:39.311Z,14.55
2022-11-29T10:29:07.082Z,14.25
2022-11-29T10:31:43.249Z,15.15
2022-11-29T10:34:15.186Z,12.05
2022-11-29T10:36:45.760Z,14.57
2022-11-29T10:39:20.294Z,13.65
2022-11-29T10:41:52.920Z,10.23
2022-11-29T10:44:21.088Z,12.25
2022-11-29T10:46:49.981Z,11.43
2022-11-29T10:49:20.631Z,12.18
2022-11-29T10:51:48.586Z,11.75
2022-11-29T10:54:31.086Z,14.00
2022-11-29T10:57:01.557Z,12.65
2022-11-29T10:59:33.065Z,12.00
2022-11-29T11:02:04.123Z,12.40
2022-11-29T11:04:36.039Z,10.95
2022-11-29T11:07:05.931Z,13.75
2022-11-29T11:09:38.003Z,11.02
2022-11-29T11:12:08.623Z,11.25
2022-11-29T11:14:39.274Z,10.65
2022-11-29T11:17:17.280Z,11.30
2022-11-29T11:19:55.877Z,14.07
2022-11-29T11:22:25.944Z,13.00
2022-11-29T11:25:00.824Z,12.93
2022-11-29T11:27:31.306Z,16.63
2022-11-29T11:29:59.695Z,30.05
2022-11-29T11:32:27.766Z,35.90
2022-11-29T11:34:57.904Z,14.52
2022-11-29T11:37:28.309Z,20.60
2022-11-29T11:40:01.376Z,16.30
2022-11-29T11:42:38.834Z,30.30
2022-11-29T11:45:24.343Z,52.67
2022-11-29T11:47:54.786Z,16.17
2022-11-29T11:50:32.794Z,13.18
2022-11-29T11:53:05.246Z,12.63
2022-11-29T11:55:40.505Z,12.38
2022-11-29T11:58:22.875Z,13.95
2022-11-29T12:01:07.599Z,11.57
2022-11-29T12:03:49.240Z,12.60
2022-11-29T12:06:41.620Z,11.00
2022-11-29T12:09:19.399Z,14.45
2022-11-29T12:12:00.186Z,10.93
2022-11-29T12:14:38.372Z,12.73
2022-11-29T12:17:19.757Z,10.98
2022-11-29T12:20:01.039Z,10.80
2022-11-29T12:22:43.845Z,9.98
2022-11-29T12:25:20.644Z,11.65
2022-11-29T12:27:51.403Z,8.98
2022-11-29T12:30:19.676Z,7.60
2022-11-29T12:33:08.225Z,7.38
2022-11-29T12:35:51.161Z,8.20
2022-11-29T12:38:37.855Z,12.98
2022-11-29T12:41:23.522Z,8.10
2022-11-29T12:44:06.341Z,7.45
2022-11-29T12:46:35.573Z,7.45
2022-11-29T12:49:14.434Z,7.68
2022-11-29T12:51:53.981Z,13.27
2022-11-29T12:54:40.952Z,11.70
2022-11-29T12:57:16.597Z,10.20
2022-11-29T13:00:04.653Z,9.45
2022-11-29T13:02:43.465Z,11.57
2022-11-29T13:05:21.394Z,11.55
2022-11-29T13:08:08.467Z,9.38
2022-11-29T13:10:51.064Z,7.22
2022-11-29T13:13:25.765Z,10.68
2022-11-29T13:16:04.406Z,8.20
2022-11-29T13:18:40.152Z,7.47
2022-11-29T13:21:14.471Z,6.60
2022-11-29T13:26:41.028Z,9.73
2022-11-29T13:29:14.871Z,9.50
2022-11-29T13:31:45.252Z,10.55
2022-11-29T13:34:20.359Z,8.15
2022-11-29T13:37:01.613Z,8.30
2022-11-29T13:39:39.918Z,8.38
2022-11-29T13:42:14.267Z,7.40
2022-11-29T13:44:47.914Z,9.48
2022-11-29T13:47:19.301Z,8.27
2022-11-29T13:49:52.741Z,11.20
2022-11-29T13:52:36.244Z,9.32
2022-11-29T13:55:28.876Z,10.20
2022-11-29T13:58:20.428Z,9.52
2022-11-29T14:00:52.791Z,10.45
2022-11-29T14:03:30.300Z,10.43
2022-11-29T14:06:15.060Z,10.85
2022-11-29T14:09:22.504Z,9.13
2022-11-29T14:11:56.639Z,9.90
2022-11-29T14:14:29.544Z,12.15
2022-11-29T14:17:00.930Z,10.75
2022-11-29T14:19:34.052Z,11.15
2022-11-29T14:22:20.327Z,13.65
2022-11-29T14:25:11.924Z,12.93
2022-11-29T14:28:03.967Z,8.60
2022-11-29T14:30:40.466Z,11.70
2022-11-29T14:33:40.984Z,9.65
2022-11-29T14:36:25.050Z,9.95
2022-11-29T14:39:03.210Z,9.60
2022-11-29T14:41:44.142Z,12.65
2022-11-29T14:44:19.135Z,9.95
2022-11-29T14:46:48.893Z,8.90
2022-11-29T14:49:23.960Z,10.38
2022-11-29T14:52:10.930Z,9.77
2022-11-29T14:54:55.130Z,10.10
2022-11-29T14:57:55.199Z,11.05
2022-11-29T15:00:24.988Z,7.88
2022-11-29T15:02:58.381Z,12.65
2022-11-29T15:05:34.412Z,9.40
2022-11-29T15:08:10.470Z,9.73
2022-11-29T15:10:43.144Z,11.50
2022-11-29T15:13:14.638Z,9.25
2022-11-29T15:16:08.710Z,8.82
2022-11-29T15:18:59.784Z,10.48
2022-11-29T15:21:35.877Z,8.57
2022-11-29T15:24:12.153Z,10.80
2022-11-29T15:26:55.583Z,8.52
2022-11-29T15:29:24.378Z,8.95
2022-11-29T15:31:55.110Z,10.10
2022-11-29T15:34:30.118Z,9.75
2022-11-29T15:36:58.200Z,11.63
2022-11-29T15:39:31.298Z,10.10
2022-11-29T15:42:11.102Z,11.73
2022-11-29T15:44:39.601Z,9.82
2022-11-29T15:47:26.266Z,9.25
2022-11-29T15:49:55.373Z,9.27
2022-11-29T15:52:29.013Z,8.27
2022-11-29T15:55:01.794Z,10.52
2022-11-29T15:57:36.059Z,9.35
2022-11-29T16:00:07.760Z,7.95
2022-11-29T16:02:39.450Z,9.38
2022-11-29T16:05:21.310Z,9.68
2022-11-29T16:07:53.615Z,8.90
2022-11-29T16:10:30.467Z,7.47
2022-11-29T16:13:05.336Z,12.98
2022-11-29T16:15:34.869Z,11.90
2022-11-29T16:18:06.758Z,7.75
2022-11-29T16:20:34.676Z,9.35
2022-11-29T16:23:11.554Z,8.48
2022-11-29T16:26:06.782Z,8.60
2022-11-29T16:28:37.999Z,9.55
2022-11-29T16:31:06.075Z,8.85
2022-11-29T16:33:34.070Z,10.38
2022-11-29T16:36:07.865Z,9.05
2022-11-29T16:38:35.858Z,9.88
2022-11-29T16:41:08.270Z,13.98
2022-11-29T16:43:55.979Z,10.57
2022-11-29T16:46:40.286Z,9.73
2022-11-29T16:49:34.903Z,11.73
2022-11-29T16:52:05.491Z,10.38
2022-11-29T16:54:34.204Z,9.68
2022-11-29T16:57:07.439Z,8.65
2022-11-29T16:59:35.426Z,12.32
2022-11-29T17:02:03.411Z,10.75
2022-11-29T17:04:31.235Z,11.52
2022-11-29T17:06:59.070Z,12.10
2022-11-29T17:09:28.959Z,13.55
2022-11-29T17:11:59.798Z,16.17
2022-11-29T17:14:29.472Z,14.23
2022-11-29T17:17:00.924Z,11.98
2022-11-29T17:19:30.441Z,12.50
2022-11-29T17:21:58.516Z,14.48
2022-11-29T17:27:20.727Z,14.35
2022-11-29T17:29:49.904Z,20.55
2022-11-29T17:32:20.841Z,14.93
2022-11-29T17:34:51.260Z,13.85
2022-11-29T17:37:19.023Z,17.58
2022-11-29T17:39:49.136Z,15.60
2022-11-29T17:42:17.070Z,14.27
2022-11-29T17:44:44.857Z,14.65
2022-11-29T17:47:14.048Z,15.48
2022-11-29T17:49:42.065Z,14.60
2022-11-29T17:52:09.864Z,20.27
2022-11-29T17:54:38.271Z,14.02
2022-11-29T17:57:06.188Z,16.23
2022-11-29T17:59:33.947Z,12.88
2022-11-29T18:02:03.919Z,15.00
2022-11-29T18:04:33.265Z,13.15
2022-11-29T18:07:01.584Z,15.43
2022-11-29T18:09:29.343Z,13.05
2022-11-29T18:11:57.204Z,16.60
2022-11-29T18:14:28.184Z,17.05
2022-11-29T18:16:56.446Z,17.52
2022-11-29T18:19:25.333Z,15.80
2022-11-29T18:21:54.581Z,17.15
2022-11-29T18:24:22.326Z,20.50
2022-11-29T18:26:50.108Z,17.58
2022-11-29T18:29:18.179Z,17.67
2022-11-29T18:31:47.449Z,15.32
2022-11-29T18:34:16.197Z,15.23
2022-11-29T18:36:46.345Z,15.13
2022-11-29T18:39:23.369Z,18.15
2022-11-29T18:41:51.511Z,17.95
2022-11-29T18:44:21.582Z,15.55
2022-11-29T18:46:49.599Z,15.35
2022-11-29T18:49:18.841Z,18.27
2022-11-29T18:51:48.416Z,14.35
2022-11-29T18:54:19.384Z,16.05
2022-11-29T18:56:47.432Z,14.70
2022-11-29T18:59:17.436Z,17.25
2022-11-29T19:01:48.744Z,19.75
2022-11-29T19:04:18.328Z,17.25
2022-11-29T19:06:46.381Z,19.80
2022-11-29T19:09:16.767Z,16.95
2022-11-29T19:11:45.959Z,14.73
2022-11-29T19:14:14.122Z,20.13
2022-11-29T19:16:46.885Z,12.18
2022-11-29T19:19:15.286Z,18.67
2022-11-29T19:21:43.551Z,15.00
2022-11-29T19:24:17.705Z,15.15
2022-11-29T19:26:48.870Z,13.13
2022-11-29T19:29:17.737Z,13.63
2022-11-29T19:31:45.763Z,15.18
2022-11-29T19:34:13.796Z,19.90
2022-11-29T19:36:44.531Z,16.67
2022-11-29T19:39:14.166Z,16.65
2022-11-29T19:41:44.019Z,20.27
2022-11-29T19:44:13.701Z,16.25
2022-11-29T19:46:43.877Z,16.02
2022-11-29T19:49:12.791Z,17.23
2022-11-29T19:51:40.804Z,18.50
2022-11-29T19:54:10.774Z,15.73
2022-11-29T19:56:39.291Z,18.50
2022-11-29T19:59:07.988Z,14.60
2022-11-29T20:01:42.538Z,13.20
2022-11-29T20:04:12.057Z,16.25
2022-11-29T20:06:40.140Z,18.52
2022-11-29T20:09:08.033Z,17.10
2022-11-29T20:11:35.876Z,19.05
2022-11-29T20:14:05.125Z,18.38
2022-11-29T20:16:33.875Z,18.98
2022-11-29T20:19:03.135Z,18.13
2022-11-29T20:21:33.836Z,17.00
2022-11-29T20:24:03.290Z,19.27
2022-11-29T20:26:33.178Z,21.42
2022-11-29T20:29:02.129Z,25.90
2022-11-29T20:31:30.650Z,18.70
2022-11-29T20:33:58.797Z,20.20
2022-11-29T20:36:45.591Z,23.10
2022-11-29T20:39:24.788Z,25.58
2022-11-29T20:42:11.710Z,23.50
2022-11-29T20:44:42.269Z,23.35
2022-11-29T20:47:14.917Z,24.85
2022-11-29T20:49:43.234Z,24.65
2022-11-29T20:52:19.909Z,23.67
2022-11-29T20:54:48.067Z,26.35
2022-11-29T20:57:15.827Z,25.98
2022-11-29T20:59:43.958Z,30.05
2022-11-29T21:02:12.013Z,31.40
2022-11-29T21:04:40.041Z,29.70
2022-11-29T21:07:07.932Z,34.95
2022-11-29T21:09:37.117Z,29.08
2022-11-29T21:12:05.519Z,24.98
2022-11-29T21:14:33.860Z,31.58
2022-11-29T21:17:02.765Z,29.58
2022-11-29T21:19:31.071Z,31.90
2022-11-29T21:22:06.030Z,38.40
2022-11-29T21:24:46.047Z,37.00
2022-11-29T21:27:18.716Z,38.97
2022-11-29T21:29:47.137Z,35.20
2022-11-29T21:32:22.678Z,29.55
2022-11-29T21:34:50.858Z,26.42
2022-11-29T21:37:21.597Z,26.90
2022-11-29T21:39:52.299Z,28.20
2022-11-29T21:42:20.340Z,24.60
2022-11-29T21:44:48.484Z,28.00
2022-11-29T21:47:16.541Z,27.05
2022-11-29T21:49:46.312Z,22.13
2022-11-29T21:52:19.031Z,50.80
2022-11-29T21:54:51.797Z,58.95
2022-11-29T21:57:19.619Z,52.38
2022-11-29T21:59:47.572Z,33.42
2022-11-29T22:02:15.458Z,23.67
2022-11-29T22:04:43.466Z,24.75
2022-11-29T22:07:11.345Z,22.55
2022-11-29T22:09:39.512Z,22.23
2022-11-29T22:12:31.880Z,20.58
2022-11-29T22:14:56.843Z,21.33
2022-11-29T22:17:24.847Z,22.42
2022-11-29T22:19:52.607Z,21.98
2022-11-29T22:22:20.414Z,24.00
2022-11-29T22:24:48.462Z,24.02
2022-11-29T22:27:18.587Z,22.30
2022-11-29T22:29:46.460Z,23.27
2022-11-29T22:32:14.305Z,24.15
2022-11-29T22:34:42.028Z,25.30
2022-11-29T22:37:09.909Z,22.80
2022-11-29T22:39:37.746Z,22.85
2022-11-29T22:42:05.538Z,25.20
2022-11-29T22:44:34.893Z,25.50
2022-11-29T22:47:02.790Z,20.65
2022-11-29T22:49:33.180Z,23.02
2022-11-29T22:52:01.169Z,20.98
2022-11-29T22:54:29.029Z,21.95
2022-11-29T22:56:56.986Z,20.25
2022-11-29T22:59:24.878Z,17.77
2022-11-29T23:01:54.155Z,19.58
2022-11-29T23:04:22.247Z,18.30
2022-11-29T23:06:50.090Z,19.60
2022-11-29T23:09:21.622Z,17.38
2022-11-29T23:11:52.277Z,17.48
2022-11-29T23:14:20.640Z,15.38
2022-11-29T23:16:48.514Z,17.80
2022-11-29T23:19:18.358Z,15.73
2022-11-29T23:21:46.508Z,18.60
2022-11-29T23:24:14.676Z,16.63
2022-11-29T23:26:44.921Z,20.35
2022-11-29T23:29:14.863Z,17.00
2022-11-29T23:31:42.709Z,15.10
2022-11-29T23:34:10.650Z,12.55
2022-11-29T23:36:39.808Z,11.60
2022-11-29T23:39:07.825Z,12.65
2022-11-29T23:41:36.656Z,15.65
2022-11-29T23:44:05.215Z,11.18
2022-11-29T23:46:33.207Z,10.20
2022-11-29T23:49:00.985Z,10.82
2022-11-29T23:51:28.774Z,15.13
2022-11-29T23:53:58.017Z,10.23
2022-11-29T23:56:25.863Z,8.60
2022-11-29T23:58:53.673Z,11.98
